createdAt,value
2023-01-17T00:00:30.313Z,97702.31
2023-01-17T00:03:34.064Z,97696.13
2023-01-17T00:06:56.537Z,97688.53
2023-01-17T00:10:02.749Z,97687.75
2023-01-17T00:13:06.364Z,97689.44
2023-01-17T00:16:10.092Z,97691.94
2023-01-17T00:19:30.909Z,97696.78
2023-01-17T00:22:53.931Z,97692.25
2023-01-17T00:26:04.777Z,97695.28
2023-01-17T00:29:07.520Z,97700.63
2023-01-17T00:32:09.981Z,97701.13
2023-01-17T00:35:12.476Z,97701.31
2023-01-17T00:38:19.494Z,97697.13
2023-01-17T00:41:21.994Z,97694.53
2023-01-17T00:44:43.036Z,97694.34
2023-01-17T00:48:04.295Z,97692.69
2023-01-17T00:51:25.483Z,97689.25
2023-01-17T00:54:48.222Z,97688.09
2023-01-17T00:58:09.265Z,97694.19
2023-01-17T01:01:30.117Z,97702.03
2023-01-17T01:04:51.364Z,97702.72
2023-01-17T01:08:12.277Z,97700.41
2023-01-17T01:11:38.314Z,97704.63
2023-01-17T01:14:59.383Z,97709.63
2023-01-17T01:18:25.528Z,97704.22
2023-01-17T01:21:46.554Z,97714.75
2023-01-17T01:25:07.796Z,97718.28
2023-01-17T01:28:33.823Z,97721.03
2023-01-17T01:31:54.959Z,97716.69
2023-01-17T01:34:58.650Z,97724.63
2023-01-17T01:38:04.809Z,97731.50
2023-01-17T01:41:09.017Z,97729.75
2023-01-17T01:44:49.465Z,97743.78
2023-01-17T01:47:59.349Z,97737.94
2023-01-17T01:51:07.774Z,97737.78
2023-01-17T01:54:17.843Z,97739.75
2023-01-17T01:57:29.190Z,97744.03
2023-01-17T02:00:40.996Z,97741.50
2023-01-17T02:03:47.012Z,97741.81
2023-01-17T02:06:57.766Z,97742.34
2023-01-17T02:10:02.247Z,97737.97
2023-01-17T02:13:06.681Z,97740.88
2023-01-17T02:16:29.486Z,97754.41
2023-01-17T02:20:26.250Z,97739.88
2023-01-17T02:24:25.682Z,97755.31
2023-01-17T02:27:49.739Z,97757.78
2023-01-17T02:31:02.993Z,97762.09
2023-01-17T02:34:15.655Z,97760.13
2023-01-17T02:37:27.327Z,97772.28
2023-01-17T02:40:39.980Z,97769.69
2023-01-17T02:43:43.962Z,97780.00
2023-01-17T02:46:52.440Z,97773.41
2023-01-17T02:50:04.306Z,97783.81
2023-01-17T02:53:31.149Z,97780.31
2023-01-17T02:56:53.748Z,97780.31
2023-01-17T03:00:08.114Z,97784.88
2023-01-17T03:03:25.423Z,97794.16
2023-01-17T03:06:36.520Z,97797.50
2023-01-17T03:09:43.817Z,97796.53
2023-01-17T03:12:48.385Z,97801.69
2023-01-17T03:15:52.166Z,97805.88
2023-01-17T03:18:57.191Z,97810.28
2023-01-17T03:22:00.759Z,97813.66
2023-01-17T03:25:04.694Z,97816.25
2023-01-17T03:28:08.377Z,97823.31
2023-01-17T03:31:16.044Z,97825.22
2023-01-17T03:34:21.058Z,97825.22
2023-01-17T03:37:24.761Z,97820.03
2023-01-17T03:40:28.408Z,97827.59
2023-01-17T03:43:32.094Z,97830.63
2023-01-17T03:46:36.504Z,97840.81
2023-01-17T03:49:41.915Z,97846.94
2023-01-17T03:52:45.553Z,97850.28
2023-01-17T03:55:49.717Z,97856.50
2023-01-17T03:58:53.705Z,97862.59
2023-01-17T04:01:57.428Z,97865.81
2023-01-17T04:05:02.533Z,97874.34
2023-01-17T04:08:07.430Z,97874.47
2023-01-17T04:11:11.542Z,97872.81
2023-01-17T04:14:15.226Z,97871.13
2023-01-17T04:17:21.740Z,97889.41
2023-01-17T04:20:35.867Z,97895.66
2023-01-17T04:23:39.551Z,97911.19
2023-01-17T04:26:43.307Z,97915.75
2023-01-17T04:29:46.954Z,97923.66
2023-01-17T04:32:50.676Z,97932.47
2023-01-17T04:35:56.005Z,97943.88
2023-01-17T04:39:00.308Z,97944.28
2023-01-17T04:42:04.101Z,97953.91
2023-01-17T04:45:09.823Z,97968.66
2023-01-17T04:48:13.548Z,97967.00
2023-01-17T04:51:18.550Z,97990.44
2023-01-17T04:54:22.159Z,97986.31
2023-01-17T04:57:26.154Z,97994.59
2023-01-17T05:00:30.226Z,98008.53
2023-01-17T05:03:34.257Z,98005.09
2023-01-17T05:06:39.251Z,98018.91
2023-01-17T05:09:43.709Z,98019.78
2023-01-17T05:12:55.708Z,98029.16
2023-01-17T05:15:59.611Z,98043.66
2023-01-17T05:19:03.346Z,98047.19
2023-01-17T05:22:15.308Z,98054.00
2023-01-17T05:25:18.983Z,98063.47
2023-01-17T05:28:22.596Z,98083.91
2023-01-17T05:31:26.503Z,98086.66
2023-01-17T05:34:30.152Z,98103.72
2023-01-17T05:37:35.163Z,98109.63
2023-01-17T05:40:38.858Z,98115.69
2023-01-17T05:43:42.823Z,98130.25
2023-01-17T05:46:46.631Z,98134.84
2023-01-17T05:49:50.215Z,98140.91
2023-01-17T05:52:58.093Z,98145.19
2023-01-17T05:56:01.678Z,98144.94
2023-01-17T05:59:05.335Z,98158.00
2023-01-17T06:02:08.956Z,98162.41
2023-01-17T06:05:13.499Z,98158.13
2023-01-17T06:08:18.495Z,98165.06
2023-01-17T06:11:22.272Z,98167.59
2023-01-17T06:14:25.855Z,98161.44
2023-01-17T06:17:29.728Z,98171.50
2023-01-17T06:20:34.129Z,98179.34
2023-01-17T06:23:39.175Z,98179.19
2023-01-17T06:26:45.243Z,98197.44
2023-01-17T06:29:48.957Z,98209.44
2023-01-17T06:32:56.363Z,98218.19
2023-01-17T06:36:00.024Z,98218.75
2023-01-17T06:39:05.189Z,98226.13
2023-01-17T06:42:09.053Z,98235.91
2023-01-17T06:45:13.344Z,98233.59
2023-01-17T06:48:16.928Z,98254.84
2023-01-17T06:51:20.567Z,98251.38
2023-01-17T06:54:25.757Z,98254.78
2023-01-17T06:57:29.502Z,98255.09
2023-01-17T07:00:35.234Z,98264.06
2023-01-17T07:03:39.914Z,98260.50
2023-01-17T07:06:43.489Z,98270.13
2023-01-17T07:09:48.513Z,98271.88
2023-01-17T07:12:52.504Z,98282.97
2023-01-17T07:15:56.548Z,98289.09
2023-01-17T07:19:00.221Z,98301.97
2023-01-17T07:22:03.933Z,98302.81
2023-01-17T07:25:10.495Z,98312.47
2023-01-17T07:28:17.243Z,98319.16
2023-01-17T07:31:20.996Z,98319.16
2023-01-17T07:34:24.644Z,98318.31
2023-01-17T07:37:28.301Z,98320.22
2023-01-17T07:40:41.555Z,98318.03
2023-01-17T07:43:45.720Z,98320.56
2023-01-17T07:46:50.567Z,98332.47
2023-01-17T07:49:54.755Z,98339.56
2023-01-17T07:52:58.404Z,98347.19
2023-01-17T07:56:05.986Z,98341.28
2023-01-17T07:59:10.286Z,98343.88
2023-01-17T08:02:19.110Z,98349.03
2023-01-17T08:05:22.912Z,98354.22
2023-01-17T08:08:26.972Z,98366.91
2023-01-17T08:11:31.973Z,98382.34
2023-01-17T08:14:35.843Z,98377.13
2023-01-17T08:17:39.549Z,98365.28
2023-01-17T08:20:45.359Z,98377.41
2023-01-17T08:23:50.159Z,98378.47
2023-01-17T08:26:57.334Z,98384.69
2023-01-17T08:30:00.998Z,98393.13
2023-01-17T08:33:04.833Z,98393.06
2023-01-17T08:36:08.695Z,98396.91
2023-01-17T08:39:13.048Z,98403.53
2023-01-17T08:42:18.590Z,98406.00
2023-01-17T08:45:30.576Z,98413.69
2023-01-17T08:48:34.330Z,98412.72
2023-01-17T08:51:38.570Z,98409.16
2023-01-17T08:54:42.256Z,98414.38
2023-01-17T08:57:47.538Z,98418.84
2023-01-17T09:00:51.218Z,98423.84
2023-01-17T09:03:55.014Z,98429.69
2023-01-17T09:06:58.707Z,98433.06
2023-01-17T09:10:02.511Z,98430.38
2023-01-17T09:13:09.061Z,98438.25
2023-01-17T09:16:12.988Z,98441.47
2023-01-17T09:19:16.736Z,98446.38
2023-01-17T09:22:20.422Z,98453.28
2023-01-17T09:25:24.102Z,98446.22
2023-01-17T09:28:29.717Z,98453.78
2023-01-17T09:31:35.427Z,98461.38
2023-01-17T09:34:39.126Z,98462.16
2023-01-17T09:37:42.814Z,98472.09
2023-01-17T09:40:49.782Z,98471.25
2023-01-17T09:44:02.992Z,98479.81
2023-01-17T09:47:15.968Z,98477.22
2023-01-17T09:50:31.677Z,98479.56
2023-01-17T09:53:41.654Z,98483.59
2023-01-17T09:56:58.493Z,98491.25
2023-01-17T10:00:17.134Z,98496.97
2023-01-17T10:03:44.827Z,98498.00
2023-01-17T10:07:12.344Z,98494.28
2023-01-17T10:10:37.891Z,98492.34
2023-01-17T10:13:55.474Z,98497.16
2023-01-17T10:17:13.683Z,98495.25
2023-01-17T10:20:46.079Z,98505.00
2023-01-17T10:24:20.504Z,98505.66
2023-01-17T10:27:32.320Z,98511.63
2023-01-17T10:30:43.519Z,98505.69
2023-01-17T10:33:53.772Z,98506.94
2023-01-17T10:37:07.951Z,98516.38
2023-01-17T10:40:24.252Z,98518.97
2023-01-17T10:43:41.575Z,98515.72
2023-01-17T10:46:53.068Z,98511.97
2023-01-17T10:49:59.484Z,98511.84
2023-01-17T10:53:12.472Z,98505.84
2023-01-17T10:56:22.219Z,98516.00
2023-01-17T10:59:32.489Z,98515.09
2023-01-17T11:02:49.657Z,98508.97
2023-01-17T11:06:20.568Z,98515.09
2023-01-17T11:09:40.455Z,98515.66
2023-01-17T11:12:47.961Z,98514.84
2023-01-17T11:15:57.775Z,98524.31
2023-01-17T11:19:17.143Z,98528.94
2023-01-17T11:22:22.897Z,98534.38
2023-01-17T11:25:27.661Z,98534.78
2023-01-17T11:28:34.129Z,98540.44
2023-01-17T11:31:37.811Z,98529.69
2023-01-17T11:34:41.550Z,98539.78
2023-01-17T11:38:06.377Z,98535.31
2023-01-17T11:41:27.900Z,98531.81
2023-01-17T11:44:34.892Z,98525.94
2023-01-17T11:47:38.503Z,98524.75
2023-01-17T11:50:47.572Z,98523.97
2023-01-17T11:53:54.969Z,98517.13
2023-01-17T11:57:01.593Z,98522.59
2023-01-17T12:00:20.728Z,98520.84
2023-01-17T12:03:52.826Z,98523.44
2023-01-17T12:07:23.457Z,98514.53
2023-01-17T12:10:37.238Z,98515.09
2023-01-17T12:14:02.487Z,98514.66
2023-01-17T12:17:24.124Z,98521.53
2023-01-17T12:20:42.603Z,98526.59
2023-01-17T12:24:17.092Z,98526.44
2023-01-17T12:27:35.813Z,98521.13
2023-01-17T12:31:15.061Z,98538.38
2023-01-17T12:34:29.402Z,98534.03
2023-01-17T12:37:39.307Z,98528.59
2023-01-17T12:40:50.293Z,98529.31
2023-01-17T12:44:00.951Z,98539.28
2023-01-17T12:47:07.438Z,98542.53
2023-01-17T12:50:28.127Z,98552.00
2023-01-17T12:53:42.634Z,98558.97
2023-01-17T12:56:54.742Z,98559.09
2023-01-17T13:00:07.845Z,98555.75
2023-01-17T13:03:27.283Z,98555.47
2023-01-17T13:06:43.388Z,98562.78
2023-01-17T13:09:55.112Z,98558.41
2023-01-17T13:13:12.896Z,98561.81
2023-01-17T13:16:25.392Z,98567.06
2023-01-17T13:19:45.243Z,98567.28
2023-01-17T13:22:49.872Z,98577.09
2023-01-17T13:25:53.560Z,98571.31
2023-01-17T13:29:12.485Z,98573.78
2023-01-17T13:32:49.395Z,98568.78
2023-01-17T13:36:11.878Z,98578.19
2023-01-17T13:39:49.287Z,98582.69
2023-01-17T13:42:57.816Z,98588.91
2023-01-17T13:46:04.746Z,98593.25
2023-01-17T13:49:56.396Z,98589.03
2023-01-17T13:53:05.842Z,98591.69
2023-01-17T13:56:17.017Z,98601.31
2023-01-17T13:59:31.168Z,98599.53
2023-01-17T14:02:38.934Z,98602.03
2023-01-17T14:05:58.130Z,98598.38
2023-01-17T14:09:06.261Z,98595.53
2023-01-17T14:12:32.835Z,98598.22
2023-01-17T14:15:52.234Z,98605.69
2023-01-17T14:18:57.029Z,98618.34
2023-01-17T14:22:25.702Z,98611.75
2023-01-17T14:25:31.263Z,98613.66
2023-01-17T14:28:34.920Z,98618.16
2023-01-17T14:31:39.816Z,98622.88
2023-01-17T14:34:46.897Z,98626.06
2023-01-17T14:37:54.860Z,98619.50
2023-01-17T14:41:04.350Z,98632.84
2023-01-17T14:44:08.577Z,98634.66
2023-01-17T14:47:15.092Z,98635.75
2023-01-17T14:50:26.306Z,98632.25
2023-01-17T14:53:33.971Z,98642.81
2023-01-17T14:56:37.597Z,98642.69
2023-01-17T14:59:41.799Z,98648.06
2023-01-17T15:02:46.987Z,98648.25
2023-01-17T15:05:54.817Z,98655.13
2023-01-17T15:09:01.493Z,98644.03
2023-01-17T15:12:09.362Z,98650.19
2023-01-17T15:15:32.930Z,98659.03
2023-01-17T15:18:42.544Z,98657.50
2023-01-17T15:21:50.677Z,98664.53
2023-01-17T15:24:56.945Z,98657.91
2023-01-17T15:28:01.103Z,98665.00
2023-01-17T15:31:13.398Z,98666.84
2023-01-17T15:34:29.435Z,98664.34
2023-01-17T15:37:37.371Z,98670.59
2023-01-17T15:40:46.680Z,98668.25
2023-01-17T15:43:57.554Z,98673.66
2023-01-17T15:47:01.719Z,98671.28
2023-01-17T15:50:31.148Z,98675.00
2023-01-17T15:53:38.431Z,98673.41
2023-01-17T15:56:45.680Z,98670.00
2023-01-17T15:59:55.656Z,98665.94
2023-01-17T16:03:00.365Z,98666.16
2023-01-17T16:06:05.390Z,98674.13
2023-01-17T16:09:23.206Z,98672.53
2023-01-17T16:12:28.391Z,98678.72
2023-01-17T16:15:41.949Z,98688.38
2023-01-17T16:18:47.668Z,98685.84
2023-01-17T16:21:51.648Z,98690.44
2023-01-17T16:24:57.818Z,98697.38
2023-01-17T16:28:04.006Z,98699.19
2023-01-17T16:31:07.898Z,98703.63
2023-01-17T16:34:13.273Z,98709.56
2023-01-17T16:37:16.844Z,98714.00
2023-01-17T16:40:22.901Z,98717.84
2023-01-17T16:43:27.958Z,98722.13
2023-01-17T16:46:31.950Z,98717.94
2023-01-17T16:49:35.635Z,98726.50
2023-01-17T16:52:39.753Z,98733.56
2023-01-17T16:55:44.747Z,98732.84
2023-01-17T16:58:49.899Z,98734.66
2023-01-17T17:01:53.795Z,98739.09
2023-01-17T17:04:57.476Z,98743.63
2023-01-17T17:08:01.967Z,98756.56
2023-01-17T17:11:15.276Z,98754.81
2023-01-17T17:14:20.483Z,98764.16
2023-01-17T17:17:24.125Z,98759.97
2023-01-17T17:20:27.679Z,98773.91
2023-01-17T17:23:31.984Z,98773.19
2023-01-17T17:26:38.072Z,98777.53
2023-01-17T17:29:43.086Z,98775.88
2023-01-17T17:32:47.998Z,98775.97
2023-01-17T17:35:51.727Z,98798.44
2023-01-17T17:38:56.701Z,98790.75
2023-01-17T17:42:00.287Z,98801.06
2023-01-17T17:45:06.295Z,98802.00
2023-01-17T17:48:09.950Z,98805.41
2023-01-17T17:51:25.499Z,98808.91
2023-01-17T17:54:29.119Z,98811.44
2023-01-17T17:57:32.721Z,98811.53
2023-01-17T18:00:37.771Z,98813.31
2023-01-17T18:03:41.923Z,98815.06
2023-01-17T18:06:46.132Z,98814.25
2023-01-17T18:09:49.938Z,98815.97
2023-01-17T18:12:54.035Z,98819.53
2023-01-17T18:16:11.197Z,98827.28
2023-01-17T18:19:17.847Z,98835.88
2023-01-17T18:22:22.043Z,98840.13
2023-01-17T18:25:26.316Z,98836.75
2023-01-17T18:28:30.006Z,98839.41
2023-01-17T18:31:36.130Z,98836.91
2023-01-17T18:34:41.614Z,98839.63
2023-01-17T18:37:45.813Z,98843.88
2023-01-17T18:40:49.564Z,98854.34
2023-01-17T18:43:56.107Z,98857.88
2023-01-17T18:47:04.677Z,98860.50
2023-01-17T18:50:09.307Z,98860.50
2023-01-17T18:53:13.059Z,98873.47
2023-01-17T18:56:20.710Z,98869.97
2023-01-17T18:59:25.836Z,98869.38
2023-01-17T19:02:30.899Z,98866.72
2023-01-17T19:05:37.461Z,98866.69
2023-01-17T19:08:41.956Z,98872.78
2023-01-17T19:11:47.642Z,98872.84
2023-01-17T19:14:51.679Z,98875.41
2023-01-17T19:17:57.113Z,98881.47
2023-01-17T19:21:06.850Z,98878.03
2023-01-17T19:24:14.355Z,98873.78
2023-01-17T19:27:18.854Z,98878.94
2023-01-17T19:30:22.682Z,98873.91
2023-01-17T19:33:27.840Z,98881.56
2023-01-17T19:36:35.586Z,98886.72
2023-01-17T19:39:39.570Z,98891.00
2023-01-17T19:42:43.450Z,98889.41
2023-01-17T19:45:59.068Z,98893.00
2023-01-17T19:49:06.815Z,98894.72
2023-01-17T19:52:10.472Z,98893.81
2023-01-17T19:55:14.056Z,98897.38
2023-01-17T19:58:17.760Z,98897.28
2023-01-17T20:01:26.678Z,98894.78
2023-01-17T20:04:31.962Z,98893.94
2023-01-17T20:07:35.620Z,98903.44
2023-01-17T20:10:39.277Z,98900.84
2023-01-17T20:13:43.388Z,98909.56
2023-01-17T20:16:49.561Z,98899.25
2023-01-17T20:19:54.616Z,98907.84
2023-01-17T20:22:58.353Z,98907.81
2023-01-17T20:26:04.680Z,98909.41
2023-01-17T20:29:12.969Z,98906.03
2023-01-17T20:32:17.116Z,98895.72
2023-01-17T20:35:22.099Z,98904.41
2023-01-17T20:38:27.507Z,98904.47
2023-01-17T20:41:33.758Z,98906.38
2023-01-17T20:44:37.545Z,98901.13
2023-01-17T20:47:41.362Z,98902.00
2023-01-17T20:50:46.575Z,98905.47
2023-01-17T20:53:54.294Z,98902.94
2023-01-17T20:56:57.902Z,98902.13
2023-01-17T21:00:01.612Z,98899.63
2023-01-17T21:03:05.436Z,98903.84
2023-01-17T21:06:13.793Z,98903.94
2023-01-17T21:09:17.767Z,98899.69
2023-01-17T21:12:22.532Z,98903.97
2023-01-17T21:15:26.452Z,98910.38
2023-01-17T21:18:32.384Z,98907.97
2023-01-17T21:21:37.537Z,98912.38
2023-01-17T21:24:41.353Z,98913.38
2023-01-17T21:27:45.626Z,98914.38
2023-01-17T21:30:49.925Z,98920.63
2023-01-17T21:33:56.748Z,98917.94
2023-01-17T21:37:01.864Z,98923.13
2023-01-17T21:40:06.498Z,98924.94
2023-01-17T21:43:11.038Z,98923.16
2023-01-17T21:46:15.288Z,98930.97
2023-01-17T21:49:19.259Z,98925.94
2023-01-17T21:52:24.363Z,98937.81
2023-01-17T21:55:45.717Z,98935.44
2023-01-17T21:58:53.950Z,98941.47
2023-01-17T22:01:58.233Z,98944.03
2023-01-17T22:05:02.036Z,98948.31
2023-01-17T22:08:14.796Z,98949.09
2023-01-17T22:11:21.976Z,98948.97
2023-01-17T22:14:25.641Z,98943.69
2023-01-17T22:17:31.388Z,98951.41
2023-01-17T22:20:35.252Z,98959.13
2023-01-17T22:23:41.755Z,98965.91
2023-01-17T22:26:45.479Z,98965.91
2023-01-17T22:29:49.034Z,98969.38
2023-01-17T22:32:52.670Z,98974.53
2023-01-17T22:36:00.099Z,98976.41
2023-01-17T22:39:05.374Z,98979.06
2023-01-17T22:42:09.113Z,98985.81
2023-01-17T22:45:13.645Z,98982.47
2023-01-17T22:48:17.240Z,98984.25
2023-01-17T22:51:23.268Z,98982.50
2023-01-17T22:54:28.278Z,98986.81
2023-01-17T22:57:31.852Z,98992.81
2023-01-17T23:00:35.757Z,98993.72
2023-01-17T23:03:41.826Z,99003.13
2023-01-17T23:06:45.538Z,98994.47
2023-01-17T23:09:50.530Z,99003.91
2023-01-17T23:12:54.406Z,99000.59
2023-01-17T23:16:15.594Z,99007.41
2023-01-17T23:19:25.226Z,99009.25
2023-01-17T23:22:31.222Z,99011.84
2023-01-17T23:25:36.346Z,99013.50
2023-01-17T23:28:38.957Z,99020.41
2023-01-17T23:31:42.617Z,99021.28
2023-01-17T23:34:47.924Z,99025.53
2023-01-17T23:38:08.976Z,99023.13
2023-01-17T23:41:31.509Z,99026.66
2023-01-17T23:44:35.501Z,99033.47
2023-01-17T23:47:39.094Z,99035.47
2023-01-17T23:50:45.766Z,99029.47
2023-01-17T23:53:51.007Z,99033.63
2023-01-17T23:56:56.013Z,99026.72
2023-01-17T23:59:59.597Z,99037.00
